Time;durP1;ratioP1;P1;durP2;ratioP2;P2;SDS_P1;SDS_P2;PMS_P1;PMS_P2;Temp;Humidity;BMP_temperature;BMP_pressure;BME280_temperature;BME280_humidity;BME280_pressure;Samples;Min_cycle;Max_cycle;Signal;HPM_P1;HPM_P2
2021/04/08 00:02:22;;;;;;;0.70;0.57;;;;;;;;;;5091642;28;20443;-70
2021/04/08 00:04:48;;;;;;;1.37;0.83;;;;;;;;;;5091910;28;20503;-70
2021/04/08 00:07:14;;;;;;;0.90;0.60;;;;;;;;;;5093031;28;20869;-71
2021/04/08 00:09:40;;;;;;;0.70;0.50;;;;;;;;;;5066164;28;20427;-70
2021/04/08 00:12:06;;;;;;;1.67;0.70;;;;;;;;;;5071721;28;20453;-70
2021/04/08 00:14:32;;;;;;;0.70;0.50;;;;;;;;;;5072344;28;20407;-71
2021/04/08 00:16:58;;;;;;;0.70;0.50;;;;;;;;;;5072445;28;20418;-69
2021/04/08 00:19:24;;;;;;;0.90;0.63;;;;;;;;;;5089301;28;20409;-69
2021/04/08 00:21:50;;;;;;;0.70;0.50;;;;;;;;;;5091984;28;20432;-71
2021/04/08 00:24:16;;;;;;;0.80;0.60;;;;;;;;;;5092541;28;20475;-70
2021/04/08 00:26:44;;;;;;;0.70;0.50;;;;;;;;;;5092456;28;20801;-70
2021/04/08 00:29:10;;;;;;;0.70;0.60;;;;;;;;;;5092755;28;20388;-70
2021/04/08 00:31:36;;;;;;;0.70;0.50;;;;;;;;;;5091708;28;20491;-71
2021/04/08 00:34:02;;;;;;;0.70;0.50;;;;;;;;;;5092404;28;20401;-70
2021/04/08 00:36:28;;;;;;;0.70;0.40;;;;;;;;;;5091949;28;20522;-70
2021/04/08 00:38:54;;;;;;;0.70;0.50;;;;;;;;;;5102007;22;20496;-75
2021/04/08 00:41:23;;;;;;;0.70;0.50;;;;;;;;;;5048685;28;20398;-74
2021/04/08 00:43:49;;;;;;;2.17;0.87;;;;;;;;;;5053673;28;20379;-72
2021/04/08 00:46:15;;;;;;;0.90;0.70;;;;;;;;;;5072124;28;20460;-75
2021/04/08 00:48:41;;;;;;;0.70;0.50;;;;;;;;;;5064904;28;20414;-79
2021/04/08 00:51:07;;;;;;;0.83;0.63;;;;;;;;;;5052093;28;20457;-76
2021/04/08 00:53:34;;;;;;;1.73;1.37;;;;;;;;;;5034626;28;20438;-75
2021/04/08 00:56:01;;;;;;;0.90;0.70;;;;;;;;;;5064996;28;20466;-74
2021/04/08 00:58:27;;;;;;;0.70;0.43;;;;;;;;;;5053019;28;20406;-74
2021/04/08 01:00:53;;;;;;;2.33;1.93;;;;;;;;;;5070894;28;20483;-76
2021/04/08 01:03:21;;;;;;;0.70;0.50;;;;;;;;;;5071259;28;20838;-74
2021/04/08 01:05:47;;;;;;;0.90;0.70;;;;;;;;;;5071589;28;20441;-72
2021/04/08 01:08:14;;;;;;;0.70;0.50;;;;;;;;;;5074105;28;20414;-75
2021/04/08 01:10:44;;;;;;;6.23;0.93;;;;;;;;;;5071344;28;20447;-73
2021/04/08 01:13:10;;;;;;;6.67;1.37;;;;;;;;;;5053404;28;20847;-73
2021/04/08 01:15:37;;;;;;;0.70;0.40;;;;;;;;;;5071552;28;20414;-73
2021/04/08 01:18:03;;;;;;;0.70;0.50;;;;;;;;;;5036587;28;20417;-72
2021/04/08 01:20:47;;;;;;;0.70;0.40;;;;;;;;;;5070946;28;20420;-73
2021/04/08 01:23:43;;;;;;;0.90;0.70;;;;;;;;;;5053058;28;20833;-72
2021/04/08 01:26:12;;;;;;;0.70;0.50;;;;;;;;;;5071360;28;20455;-72
2021/04/08 01:28:40;;;;;;;0.97;0.87;;;;;;;;;;5053146;28;20418;-73
2021/04/08 01:31:07;;;;;;;1.40;0.60;;;;;;;;;;5071503;28;20450;-76
2021/04/08 01:33:35;;;;;;;0.70;0.60;;;;;;;;;;5053386;28;20491;-75
2021/04/08 01:36:06;;;;;;;1.60;1.50;;;;;;;;;;5071571;28;20462;-75
2021/04/08 01:38:33;;;;;;;0.70;0.40;;;;;;;;;;5054629;28;20950;-75
2021/04/08 01:41:01;;;;;;;0.70;0.50;;;;;;;;;;5061804;28;20436;-75
2021/04/08 01:43:31;;;;;;;0.70;0.50;;;;;;;;;;5067666;28;21075;-75
2021/04/08 01:45:58;;;;;;;0.70;0.50;;;;;;;;;;5070948;28;20404;-74
2021/04/08 01:48:25;;;;;;;0.77;0.73;;;;;;;;;;5055564;28;20418;-74
2021/04/08 01:50:54;;;;;;;0.70;0.60;;;;;;;;;;5052656;28;20455;-74
2021/04/08 01:53:21;;;;;;;0.70;0.50;;;;;;;;;;5068350;28;20446;-74
2021/04/08 01:55:49;;;;;;;0.70;0.40;;;;;;;;;;5033277;28;20931;-75
2021/04/08 01:58:18;;;;;;;0.80;0.73;;;;;;;;;;5065856;28;20448;-74
2021/04/08 02:00:44;;;;;;;0.70;0.60;;;;;;;;;;5070810;28;20427;-76
2021/04/08 02:03:11;;;;;;;0.70;0.40;;;;;;;;;;5053738;28;20426;-75
2021/04/08 02:05:37;;;;;;;1.73;0.60;;;;;;;;;;5071033;28;20735;-75
2021/04/08 02:08:03;;;;;;;0.70;0.50;;;;;;;;;;5053101;28;20451;-75
2021/04/08 02:10:30;;;;;;;0.70;0.60;;;;;;;;;;5067549;28;20460;-75
2021/04/08 02:12:56;;;;;;;0.70;0.50;;;;;;;;;;5072713;28;20520;-74
2021/04/08 02:15:24;;;;;;;0.70;0.40;;;;;;;;;;5053690;28;20788;-75
2021/04/08 02:17:53;;;;;;;0.70;0.50;;;;;;;;;;5071522;28;20450;-75
2021/04/08 02:20:20;;;;;;;0.70;0.50;;;;;;;;;;5071085;28;20796;-75
2021/04/08 02:22:47;;;;;;;0.70;0.50;;;;;;;;;;5052295;28;20406;-74
2021/04/08 02:25:14;;;;;;;0.80;0.60;;;;;;;;;;5070281;28;20440;-76
2021/04/08 02:27:41;;;;;;;0.70;0.50;;;;;;;;;;5070498;28;20488;-76
2021/04/08 02:30:08;;;;;;;2.00;0.83;;;;;;;;;;5070273;28;20438;-76
2021/04/08 02:32:36;;;;;;;0.70;0.40;;;;;;;;;;5070374;28;20478;-75
2021/04/08 02:35:02;;;;;;;0.70;0.50;;;;;;;;;;5070572;28;20444;-74
2021/04/08 02:37:28;;;;;;;0.80;0.70;;;;;;;;;;5051806;28;20484;-74
2021/04/08 02:39:54;;;;;;;0.70;0.50;;;;;;;;;;5051180;28;20454;-76
2021/04/08 02:42:20;;;;;;;0.70;0.50;;;;;;;;;;5070273;28;20826;-74
2021/04/08 02:44:46;;;;;;;0.70;0.50;;;;;;;;;;5070554;28;20402;-75
2021/04/08 02:47:12;;;;;;;0.70;0.47;;;;;;;;;;5069969;28;20443;-74
2021/04/08 02:49:38;;;;;;;0.70;0.50;;;;;;;;;;5071637;28;20728;-75
2021/04/08 02:52:05;;;;;;;0.70;0.40;;;;;;;;;;5059639;28;20444;-74
2021/04/08 02:54:34;;;;;;;0.70;0.50;;;;;;;;;;5055697;28;20408;-75
2021/04/08 02:57:01;;;;;;;0.70;0.47;;;;;;;;;;5050356;28;20424;-73
2021/04/08 02:59:29;;;;;;;0.70;0.50;;;;;;;;;;5055017;28;20433;-76
2021/04/08 03:02:08;;;;;;;0.70;0.40;;;;;;;;;;5070094;28;20426;-75
2021/04/08 03:04:49;;;;;;;0.70;0.50;;;;;;;;;;5067436;28;20456;-75
2021/04/08 03:07:19;;;;;;;0.70;0.60;;;;;;;;;;5052443;28;20379;-75
2021/04/08 03:09:45;;;;;;;0.80;0.70;;;;;;;;;;5088046;28;20539;-75
2021/04/08 03:12:13;;;;;;;0.70;0.50;;;;;;;;;;5096095;28;20491;-76
2021/04/08 03:14:40;;;;;;;0.70;0.40;;;;;;;;;;5075777;28;20891;-75
2021/04/08 03:17:07;;;;;;;0.70;0.40;;;;;;;;;;5070771;28;20417;-74
2021/04/08 03:19:35;;;;;;;0.70;0.60;;;;;;;;;;5052265;28;20424;-76
2021/04/08 03:22:02;;;;;;;0.70;0.47;;;;;;;;;;5051801;28;20418;-75
2021/04/08 03:24:28;;;;;;;0.80;0.70;;;;;;;;;;5073662;28;20449;-72
2021/04/08 03:26:54;;;;;;;0.90;0.70;;;;;;;;;;5073337;28;20415;-73
2021/04/08 03:29:21;;;;;;;0.70;0.50;;;;;;;;;;5055455;28;20428;-75
2021/04/08 03:31:47;;;;;;;0.83;0.70;;;;;;;;;;5073058;28;20560;-75
2021/04/08 03:34:14;;;;;;;0.70;0.50;;;;;;;;;;5073461;28;20974;-75
2021/04/08 03:36:40;;;;;;;0.80;0.80;;;;;;;;;;5054958;28;20771;-75
2021/04/08 03:39:06;;;;;;;0.70;0.50;;;;;;;;;;5073087;28;20440;-74
2021/04/08 03:41:36;;;;;;;0.70;0.40;;;;;;;;;;5072907;28;20421;-74
2021/04/08 03:44:03;;;;;;;0.70;0.50;;;;;;;;;;5054731;28;20934;-74
2021/04/08 03:46:29;;;;;;;0.70;0.50;;;;;;;;;;5073056;28;20420;-74
2021/04/08 03:48:56;;;;;;;2.80;2.10;;;;;;;;;;5073065;28;20915;-75
2021/04/08 03:51:25;;;;;;;0.70;0.50;;;;;;;;;;5072813;28;20444;-72
2021/04/08 03:53:53;;;;;;;0.70;0.40;;;;;;;;;;5073064;28;20406;-75
2021/04/08 03:56:20;;;;;;;0.70;0.50;;;;;;;;;;5054561;28;20409;-74
2021/04/08 03:58:46;;;;;;;0.70;0.40;;;;;;;;;;5054886;28;20424;-76
2021/04/08 04:01:14;;;;;;;0.70;0.53;;;;;;;;;;5055852;28;20432;-75
2021/04/08 04:03:41;;;;;;;0.80;0.70;;;;;;;;;;5054846;28;20955;-74
2021/04/08 04:06:08;;;;;;;0.80;0.63;;;;;;;;;;5070946;28;20453;-77
2021/04/08 04:08:34;;;;;;;0.70;0.50;;;;;;;;;;5071531;28;20848;-77
2021/04/08 04:11:02;;;;;;;0.90;0.70;;;;;;;;;;5069626;28;20560;-78
2021/04/08 04:13:31;;;;;;;0.70;0.60;;;;;;;;;;5046230;28;20411;-78
2021/04/08 04:15:57;;;;;;;0.70;0.43;;;;;;;;;;5067474;28;20875;-77
2021/04/08 04:18:23;;;;;;;0.90;0.60;;;;;;;;;;5055134;28;20539;-78
2021/04/08 04:20:49;;;;;;;0.97;0.87;;;;;;;;;;5072277;28;20422;-75
2021/04/08 04:23:16;;;;;;;0.70;0.50;;;;;;;;;;5068178;28;20394;-78
2021/04/08 04:25:42;;;;;;;0.70;0.50;;;;;;;;;;5040914;28;20419;-78
2021/04/08 04:28:08;;;;;;;0.70;0.40;;;;;;;;;;5069189;28;20417;-73
2021/04/08 04:30:34;;;;;;;0.93;0.83;;;;;;;;;;5066396;28;20505;-75
2021/04/08 04:33:00;;;;;;;0.70;0.50;;;;;;;;;;5065458;28;20494;-77
2021/04/08 04:35:26;;;;;;;0.70;0.50;;;;;;;;;;5042621;28;20490;-74
2021/04/08 04:37:52;;;;;;;0.80;0.70;;;;;;;;;;5064499;28;20380;-76
2021/04/08 04:40:18;;;;;;;0.70;0.50;;;;;;;;;;5096601;22;20578;-69
2021/04/08 04:42:44;;;;;;;0.70;0.50;;;;;;;;;;5080605;28;20400;-68
2021/04/08 04:45:11;;;;;;;0.97;0.60;;;;;;;;;;5081762;28;20926;-69
2021/04/08 04:47:41;;;;;;;0.80;0.73;;;;;;;;;;5082905;28;20442;-69
2021/04/08 04:50:08;;;;;;;1.73;0.87;;;;;;;;;;5080465;28;20842;-70
2021/04/08 04:52:34;;;;;;;1.53;0.80;;;;;;;;;;5084618;28;20456;-71
2021/04/08 04:55:00;;;;;;;0.70;0.50;;;;;;;;;;5085684;28;20463;-70
2021/04/08 04:57:26;;;;;;;0.70;0.50;;;;;;;;;;5062871;28;20397;-70
2021/04/08 04:59:52;;;;;;;0.83;0.70;;;;;;;;;;5081411;28;20420;-69
2021/04/08 05:02:18;;;;;;;1.10;1.00;;;;;;;;;;5078042;28;21363;-69
2021/04/08 05:04:44;;;;;;;0.70;0.50;;;;;;;;;;5090852;28;20406;-69
2021/04/08 05:07:10;;;;;;;0.70;0.50;;;;;;;;;;5085162;28;20414;-70
2021/04/08 05:09:36;;;;;;;0.70;0.50;;;;;;;;;;5085151;28;20430;-69
2021/04/08 05:12:02;;;;;;;3.73;1.63;;;;;;;;;;5090989;28;20959;-70
2021/04/08 05:14:28;;;;;;;0.70;0.50;;;;;;;;;;5091087;28;20413;-70
2021/04/08 05:16:54;;;;;;;0.70;0.50;;;;;;;;;;5086955;28;20412;-70
2021/04/08 05:19:20;;;;;;;2.10;0.60;;;;;;;;;;5090227;28;20429;-69
2021/04/08 05:21:48;;;;;;;0.90;0.80;;;;;;;;;;5091425;28;20432;-70
2021/04/08 05:24:14;;;;;;;0.70;0.40;;;;;;;;;;5088259;28;20426;-70
2021/04/08 05:26:40;;;;;;;5.07;0.97;;;;;;;;;;5074568;28;20776;-68
2021/04/08 05:29:06;;;;;;;0.97;0.90;;;;;;;;;;5106971;28;20435;-71
2021/04/08 05:31:32;;;;;;;0.70;0.40;;;;;;;;;;5086626;28;20454;-69
2021/04/08 05:33:58;;;;;;;0.70;0.50;;;;;;;;;;5090908;28;20798;-70
2021/04/08 05:36:24;;;;;;;0.70;0.50;;;;;;;;;;5100338;28;20786;-69
2021/04/08 05:38:50;;;;;;;0.80;0.67;;;;;;;;;;5100348;28;20854;-69
2021/04/08 05:41:16;;;;;;;0.70;0.60;;;;;;;;;;5094266;28;20503;-70
2021/04/08 05:43:43;;;;;;;1.93;1.10;;;;;;;;;;5101748;28;20502;-70
2021/04/08 05:46:10;;;;;;;0.70;0.50;;;;;;;;;;5100373;28;20768;-69
2021/04/08 05:48:36;;;;;;;0.70;0.50;;;;;;;;;;5096059;28;20409;-70
2021/04/08 05:51:02;;;;;;;0.70;0.60;;;;;;;;;;5094642;28;20449;-68
2021/04/08 05:53:28;;;;;;;0.70;0.40;;;;;;;;;;5074158;28;20403;-70
2021/04/08 05:55:54;;;;;;;0.70;0.50;;;;;;;;;;5104110;28;20441;-70
2021/04/08 05:58:19;;;;;;;0.70;0.50;;;;;;;;;;5091264;28;20771;-69
2021/04/08 06:00:48;;;;;;;0.70;0.50;;;;;;;;;;5097096;28;20425;-70
2021/04/08 06:03:14;;;;;;;0.70;0.50;;;;;;;;;;5097238;28;20439;-68
2021/04/08 06:05:40;;;;;;;0.70;0.50;;;;;;;;;;5094352;28;20775;-69
2021/04/08 06:08:07;;;;;;;0.70;0.53;;;;;;;;;;5100460;28;20416;-70
2021/04/08 06:10:33;;;;;;;2.40;2.20;;;;;;;;;;5094309;28;20452;-69
2021/04/08 06:12:59;;;;;;;1.23;1.13;;;;;;;;;;5087488;28;20420;-70
2021/04/08 06:15:28;;;;;;;0.80;0.50;;;;;;;;;;5089450;28;20433;-69
2021/04/08 06:17:54;;;;;;;0.70;0.50;;;;;;;;;;5090410;28;20417;-70
2021/04/08 06:20:20;;;;;;;0.97;0.87;;;;;;;;;;5091861;28;20930;-71
2021/04/08 06:22:46;;;;;;;0.80;0.70;;;;;;;;;;5089564;28;20383;-70
2021/04/08 06:25:12;;;;;;;1.43;0.80;;;;;;;;;;5072174;28;20425;-69
2021/04/08 06:27:38;;;;;;;0.70;0.60;;;;;;;;;;5080479;28;20425;-69
2021/04/08 06:30:05;;;;;;;1.27;0.63;;;;;;;;;;5087121;28;20805;-69
2021/04/08 06:32:31;;;;;;;0.70;0.50;;;;;;;;;;5088180;28;20454;-70
2021/04/08 06:34:57;;;;;;;1.07;0.90;;;;;;;;;;5090536;28;20398;-70
2021/04/08 06:37:23;;;;;;;0.70;0.50;;;;;;;;;;5090705;28;20823;-69
2021/04/08 06:39:49;;;;;;;0.70;0.60;;;;;;;;;;5110337;22;20441;-69
2021/04/08 06:42:20;;;;;;;0.70;0.50;;;;;;;;;;5063273;28;20446;-69
2021/04/08 06:44:50;;;;;;;0.80;0.60;;;;;;;;;;5059027;28;20425;-70
2021/04/08 06:47:20;;;;;;;0.80;0.70;;;;;;;;;;5067137;28;20386;-70
2021/04/08 06:49:52;;;;;;;0.70;0.50;;;;;;;;;;5048772;28;20426;-70
2021/04/08 06:52:19;;;;;;;0.70;0.60;;;;;;;;;;5067901;28;20453;-70
2021/04/08 06:54:45;;;;;;;0.73;0.60;;;;;;;;;;5069735;28;20509;-70
2021/04/08 06:57:13;;;;;;;0.80;0.80;;;;;;;;;;5070360;28;20422;-69
2021/04/08 06:59:39;;;;;;;1.60;0.83;;;;;;;;;;5073959;28;20482;-69
2021/04/08 07:02:06;;;;;;;0.70;0.50;;;;;;;;;;5072963;28;20426;-69
2021/04/08 07:04:32;;;;;;;1.03;0.93;;;;;;;;;;5073323;28;20783;-70
2021/04/08 07:06:58;;;;;;;0.90;0.80;;;;;;;;;;5073420;28;20483;-70
2021/04/08 07:09:24;;;;;;;1.07;0.83;;;;;;;;;;5081789;28;20508;-71
2021/04/08 07:11:51;;;;;;;0.70;0.50;;;;;;;;;;5075639;28;20561;-71
2021/04/08 07:14:17;;;;;;;0.73;0.50;;;;;;;;;;5074798;28;20439;-69
2021/04/08 07:16:43;;;;;;;0.90;0.70;;;;;;;;;;5064079;28;20901;-70
2021/04/08 07:19:09;;;;;;;0.70;0.50;;;;;;;;;;5072554;28;20407;-70
2021/04/08 07:21:36;;;;;;;0.70;0.50;;;;;;;;;;5049740;28;20505;-69
2021/04/08 07:24:11;;;;;;;1.73;0.90;;;;;;;;;;5089393;28;20790;-69
2021/04/08 07:26:54;;;;;;;0.80;0.57;;;;;;;;;;5080437;28;20415;-70
2021/04/08 07:29:21;;;;;;;0.80;0.70;;;;;;;;;;5080641;28;20402;-73
2021/04/08 07:31:47;;;;;;;1.07;0.90;;;;;;;;;;5075021;28;20497;-73
2021/04/08 07:34:13;;;;;;;1.17;0.87;;;;;;;;;;5088598;28;20383;-72
2021/04/08 07:36:42;;;;;;;0.70;0.50;;;;;;;;;;5081462;28;20416;-76
2021/04/08 07:39:15;;;;;;;1.00;0.60;;;;;;;;;;5083637;28;20430;-76
2021/04/08 07:41:42;;;;;;;0.70;0.57;;;;;;;;;;5056511;28;20479;-75
2021/04/08 07:44:12;;;;;;;0.70;0.50;;;;;;;;;;5073323;28;20409;-75
2021/04/08 07:46:38;;;;;;;0.70;0.60;;;;;;;;;;5075159;28;20425;-75
2021/04/08 07:49:05;;;;;;;0.70;0.50;;;;;;;;;;5076455;28;20926;-75
2021/04/08 07:51:38;;;;;;;0.70;0.50;;;;;;;;;;5088145;28;20456;-72
2021/04/08 07:54:10;;;;;;;1.00;0.80;;;;;;;;;;5084371;28;20753;-72
2021/04/08 07:56:36;;;;;;;0.70;0.50;;;;;;;;;;5085400;28;20918;-72
2021/04/08 07:59:15;;;;;;;2.03;0.90;;;;;;;;;;5080820;28;20409;-73
2021/04/08 08:01:41;;;;;;;0.77;0.70;;;;;;;;;;5066628;28;20773;-72
2021/04/08 08:04:18;;;;;;;0.70;0.40;;;;;;;;;;5072399;28;20533;-71
2021/04/08 08:06:44;;;;;;;0.70;0.47;;;;;;;;;;5072655;28;20763;-73
2021/04/08 08:09:12;;;;;;;0.80;0.50;;;;;;;;;;5072308;28;20420;-72
2021/04/08 08:11:44;;;;;;;0.70;0.50;;;;;;;;;;5066113;28;20506;-72
2021/04/08 08:14:10;;;;;;;0.70;0.50;;;;;;;;;;5072510;28;20505;-70
2021/04/08 08:16:37;;;;;;;0.97;0.70;;;;;;;;;;5050967;28;20568;-72
2021/04/08 08:19:03;;;;;;;1.47;1.07;;;;;;;;;;5071674;28;20410;-71
2021/04/08 08:21:37;;;;;;;1.73;1.40;;;;;;;;;;5069747;28;20416;-71
2021/04/08 08:24:08;;;;;;;3.33;0.80;;;;;;;;;;5071836;28;20395;-72
2021/04/08 08:26:33;;;;;;;3.57;1.00;;;;;;;;;;5065890;28;21019;-72
2021/04/08 08:29:02;;;;;;;0.90;0.60;;;;;;;;;;5071328;28;20445;-72
2021/04/08 08:31:42;;;;;;;0.73;0.47;;;;;;;;;;5070127;28;20460;-72
2021/04/08 08:34:10;;;;;;;0.80;0.70;;;;;;;;;;5057966;28;20411;-72
2021/04/08 08:36:37;;;;;;;0.80;0.50;;;;;;;;;;5063812;28;20413;-72
2021/04/08 08:39:05;;;;;;;0.93;0.83;;;;;;;;;;5063805;28;20428;-72
2021/04/08 08:41:31;;;;;;;0.70;0.40;;;;;;;;;;5070180;28;20441;-72
2021/04/08 08:43:57;;;;;;;0.70;0.50;;;;;;;;;;5071023;28;20385;-72
2021/04/08 08:46:26;;;;;;;0.87;0.60;;;;;;;;;;5072116;28;20967;-71
2021/04/08 08:48:57;;;;;;;0.70;0.50;;;;;;;;;;5069152;28;20459;-72
2021/04/08 08:51:23;;;;;;;7.10;1.03;;;;;;;;;;5065285;28;20455;-71
2021/04/08 08:53:52;;;;;;;0.70;0.50;;;;;;;;;;5063108;28;20946;-72
2021/04/08 08:56:19;;;;;;;2.50;0.80;;;;;;;;;;5045995;28;20405;-72
2021/04/08 08:58:45;;;;;;;0.70;0.47;;;;;;;;;;5059526;28;20901;-72
2021/04/08 09:01:11;;;;;;;0.70;0.50;;;;;;;;;;5061312;28;20524;-72
2021/04/08 09:03:39;;;;;;;0.70;0.40;;;;;;;;;;5059652;28;20410;-72
2021/04/08 09:06:06;;;;;;;0.87;0.50;;;;;;;;;;5058450;28;20490;-73
2021/04/08 09:08:35;;;;;;;0.80;0.60;;;;;;;;;;5061298;28;20776;-72
2021/04/08 09:11:01;;;;;;;0.70;0.53;;;;;;;;;;5060619;28;20490;-72
2021/04/08 09:13:27;;;;;;;0.73;0.53;;;;;;;;;;5064027;28;20535;-72
2021/04/08 09:15:53;;;;;;;1.00;0.60;;;;;;;;;;5062966;28;20470;-73
2021/04/08 09:18:23;;;;;;;1.87;0.97;;;;;;;;;;5067240;28;20404;-72
2021/04/08 09:20:49;;;;;;;0.90;0.70;;;;;;;;;;5079044;28;20454;-71
2021/04/08 09:23:18;;;;;;;0.90;0.50;;;;;;;;;;5067866;28;20711;-72
2021/04/08 09:25:52;;;;;;;6.07;1.27;;;;;;;;;;5064023;28;20384;-72
2021/04/08 09:28:19;;;;;;;0.70;0.50;;;;;;;;;;5067884;28;20438;-73
2021/04/08 09:30:49;;;;;;;0.70;0.50;;;;;;;;;;5078765;28;20439;-72
2021/04/08 09:33:16;;;;;;;0.80;0.70;;;;;;;;;;5068528;28;20843;-72
2021/04/08 09:35:43;;;;;;;0.77;0.57;;;;;;;;;;5086234;28;20815;-73
2021/04/08 09:38:09;;;;;;;2.40;0.87;;;;;;;;;;5078283;28;20385;-73
2021/04/08 09:40:42;;;;;;;0.80;0.60;;;;;;;;;;5078474;28;20444;-73
2021/04/08 09:43:12;;;;;;;5.43;1.17;;;;;;;;;;5079715;28;20780;-72
2021/04/08 09:45:45;;;;;;;0.70;0.50;;;;;;;;;;5070776;28;20543;-74
2021/04/08 09:48:11;;;;;;;1.77;0.90;;;;;;;;;;5069603;28;20419;-72
2021/04/08 09:50:47;;;;;;;2.23;0.73;;;;;;;;;;5070789;28;20415;-73
2021/04/08 09:53:14;;;;;;;0.80;0.70;;;;;;;;;;5055777;28;20398;-73
2021/04/08 09:55:43;;;;;;;1.07;0.80;;;;;;;;;;5085215;28;20400;-73
2021/04/08 09:58:10;;;;;;;1.27;0.87;;;;;;;;;;5052824;28;20927;-73
2021/04/08 10:00:36;;;;;;;0.70;0.40;;;;;;;;;;5059111;28;20429;-73
2021/04/08 10:03:04;;;;;;;1.60;0.80;;;;;;;;;;5080386;28;20636;-73
2021/04/08 10:05:35;;;;;;;0.80;0.50;;;;;;;;;;5086950;28;20378;-72
2021/04/08 10:08:01;;;;;;;0.80;0.60;;;;;;;;;;5076265;28;20395;-73
2021/04/08 10:10:36;;;;;;;0.70;0.60;;;;;;;;;;5085720;28;20483;-73
2021/04/08 10:13:02;;;;;;;0.80;0.60;;;;;;;;;;5073228;28;20413;-72
2021/04/08 10:15:36;;;;;;;0.90;0.80;;;;;;;;;;5078031;28;21053;-72
2021/04/08 10:18:02;;;;;;;1.23;1.13;;;;;;;;;;5072908;28;20409;-72
2021/04/08 10:20:39;;;;;;;0.70;0.50;;;;;;;;;;5065186;28;20475;-72
2021/04/08 10:23:05;;;;;;;0.90;0.70;;;;;;;;;;5057622;28;20391;-72
2021/04/08 10:25:31;;;;;;;0.70;0.50;;;;;;;;;;5070420;28;20371;-73
2021/04/08 10:27:57;;;;;;;0.70;0.50;;;;;;;;;;5068717;28;20393;-73
2021/04/08 10:30:24;;;;;;;0.70;0.60;;;;;;;;;;5070021;28;20418;-72
2021/04/08 10:32:50;;;;;;;1.23;1.13;;;;;;;;;;5070644;28;20389;-73
2021/04/08 10:35:19;;;;;;;0.70;0.50;;;;;;;;;;5074845;28;20413;-72
2021/04/08 10:37:46;;;;;;;0.70;0.50;;;;;;;;;;5073609;28;20420;-72
2021/04/08 10:40:12;;;;;;;1.63;1.13;;;;;;;;;;5073101;28;20437;-73
2021/04/08 10:42:38;;;;;;;0.70;0.50;;;;;;;;;;5073641;28;20376;-72
2021/04/08 10:45:11;;;;;;;0.70;0.50;;;;;;;;;;5073287;28;20412;-73
2021/04/08 10:47:37;;;;;;;2.17;0.90;;;;;;;;;;5073342;28;20406;-73
2021/04/08 10:50:05;;;;;;;1.33;0.70;;;;;;;;;;5070748;28;21049;-72
2021/04/08 10:52:32;;;;;;;0.80;0.50;;;;;;;;;;5054888;28;20689;-73
2021/04/08 10:54:59;;;;;;;0.97;0.57;;;;;;;;;;5073162;28;20938;-71
2021/04/08 10:57:25;;;;;;;8.13;1.77;;;;;;;;;;5090205;28;20405;-72
2021/04/08 10:59:52;;;;;;;0.80;0.50;;;;;;;;;;5076792;28;20478;-72
2021/04/08 11:02:24;;;;;;;0.87;0.60;;;;;;;;;;5082102;28;20482;-72
2021/04/08 11:04:50;;;;;;;0.70;0.40;;;;;;;;;;5065800;28;20495;-73
2021/04/08 11:07:16;;;;;;;0.80;0.63;;;;;;;;;;5072401;28;20511;-73
2021/04/08 11:09:43;;;;;;;1.93;0.60;;;;;;;;;;5068963;28;20384;-73
2021/04/08 11:12:19;;;;;;;2.33;0.90;;;;;;;;;;5067870;28;20465;-71
2021/04/08 11:14:55;;;;;;;0.70;0.40;;;;;;;;;;5064183;28;20382;-73
2021/04/08 11:17:21;;;;;;;0.87;0.70;;;;;;;;;;5065336;28;21087;-72
2021/04/08 11:19:48;;;;;;;0.70;0.40;;;;;;;;;;5070361;28;20424;-72
2021/04/08 11:22:14;;;;;;;0.70;0.50;;;;;;;;;;5065455;28;20508;-73
2021/04/08 11:24:41;;;;;;;0.70;0.50;;;;;;;;;;5064716;28;20497;-73
2021/04/08 11:27:07;;;;;;;0.90;0.73;;;;;;;;;;5063928;28;20435;-73
2021/04/08 11:29:33;;;;;;;0.80;0.70;;;;;;;;;;5072202;28;20807;-73
2021/04/08 11:32:10;;;;;;;0.70;0.40;;;;;;;;;;5069212;28;20440;-73
2021/04/08 11:34:44;;;;;;;0.80;0.50;;;;;;;;;;5068887;28;20401;-72
2021/04/08 11:37:10;;;;;;;0.70;0.60;;;;;;;;;;5071717;28;20981;-74
2021/04/08 11:39:36;;;;;;;0.70;0.60;;;;;;;;;;5073064;28;20954;-73
2021/04/08 11:42:14;;;;;;;0.70;0.50;;;;;;;;;;5070685;28;20415;-71
2021/04/08 11:44:41;;;;;;;0.73;0.47;;;;;;;;;;5072432;28;20430;-73
2021/04/08 11:47:25;;;;;;;3.70;0.70;;;;;;;;;;5071816;28;20988;-73
2021/04/08 11:49:52;;;;;;;0.70;0.60;;;;;;;;;;5073068;28;20398;-72
2021/04/08 11:52:20;;;;;;;0.70;0.50;;;;;;;;;;5068860;28;20794;-72
2021/04/08 11:55:05;;;;;;;0.70;0.40;;;;;;;;;;5067809;28;20841;-72
2021/04/08 11:57:31;;;;;;;0.80;0.70;;;;;;;;;;5064701;28;21052;-72
2021/04/08 12:00:01;;;;;;;0.70;0.50;;;;;;;;;;5085972;28;20542;-72
2021/04/08 12:02:34;;;;;;;5.23;1.00;;;;;;;;;;5071185;28;20439;-73
2021/04/08 12:05:03;;;;;;;1.10;0.73;;;;;;;;;;5086216;28;20413;-71
2021/04/08 12:07:29;;;;;;;0.70;0.43;;;;;;;;;;5062211;28;20502;-71
2021/04/08 12:09:55;;;;;;;0.90;0.60;;;;;;;;;;5088467;28;20430;-72
2021/04/08 12:12:31;;;;;;;0.83;0.60;;;;;;;;;;5081002;28;20449;-70
2021/04/08 12:15:04;;;;;;;0.70;0.40;;;;;;;;;;5086466;28;20447;-72
2021/04/08 12:17:31;;;;;;;2.10;1.23;;;;;;;;;;5073193;28;20429;-73
2021/04/08 12:20:32;;;;;;;0.80;0.50;;;;;;;;;;5069937;28;20498;-72
2021/04/08 12:23:06;;;;;;;0.90;0.67;;;;;;;;;;4988010;28;20552;-73
2021/04/08 12:25:39;;;;;;;0.70;0.50;;;;;;;;;;5076344;28;20924;-72
2021/04/08 12:28:05;;;;;;;0.80;0.63;;;;;;;;;;5076135;28;20928;-71
2021/04/08 12:30:31;;;;;;;0.90;0.50;;;;;;;;;;5066258;28;20469;-71
2021/04/08 12:32:59;;;;;;;0.90;0.80;;;;;;;;;;5062758;28;20399;-72
2021/04/08 12:35:25;;;;;;;0.70;0.60;;;;;;;;;;5071370;28;20386;-73
2021/04/08 12:37:51;;;;;;;1.07;0.63;;;;;;;;;;5071260;28;20382;-73
2021/04/08 12:40:17;;;;;;;0.80;0.60;;;;;;;;;;5068899;28;20474;-74
2021/04/08 12:42:44;;;;;;;0.83;0.67;;;;;;;;;;5069640;28;20417;-72
2021/04/08 12:45:10;;;;;;;0.70;0.50;;;;;;;;;;5070285;28;20387;-73
2021/04/08 12:47:36;;;;;;;0.70;0.40;;;;;;;;;;5069451;28;20428;-72
2021/04/08 12:50:02;;;;;;;1.00;0.87;;;;;;;;;;5070133;28;20442;-73
2021/04/08 12:52:28;;;;;;;0.97;0.53;;;;;;;;;;5052173;28;20808;-73
2021/04/08 12:54:54;;;;;;;0.80;0.60;;;;;;;;;;5084682;28;20401;-72
2021/04/08 12:57:20;;;;;;;1.37;0.60;;;;;;;;;;5091867;23;20603;-71
2021/04/08 12:59:46;;;;;;;0.70;0.40;;;;;;;;;;5091997;28;20405;-70
2021/04/08 13:02:12;;;;;;;0.70;0.50;;;;;;;;;;5072781;28;20375;-70
2021/04/08 13:04:38;;;;;;;0.70;0.40;;;;;;;;;;5103624;28;20919;-70
2021/04/08 13:07:04;;;;;;;0.70;0.63;;;;;;;;;;5097045;28;21204;-69
2021/04/08 13:09:30;;;;;;;0.80;0.60;;;;;;;;;;5092123;28;20395;-69
2021/04/08 13:11:56;;;;;;;1.37;1.27;;;;;;;;;;5089786;28;21123;-69
2021/04/08 13:14:22;;;;;;;1.37;1.07;;;;;;;;;;5091484;28;20773;-69
2021/04/08 13:16:47;;;;;;;0.70;0.50;;;;;;;;;;5090908;28;20533;-70
2021/04/08 13:19:13;;;;;;;0.80;0.60;;;;;;;;;;5096062;28;20417;-69
2021/04/08 13:21:39;;;;;;;0.70;0.40;;;;;;;;;;5093737;28;20424;-70
2021/04/08 13:24:06;;;;;;;3.47;0.60;;;;;;;;;;5105683;28;20416;-70
2021/04/08 13:26:32;;;;;;;0.70;0.50;;;;;;;;;;5097086;28;20441;-69
2021/04/08 13:29:00;;;;;;;1.57;0.70;;;;;;;;;;5095507;28;20479;-71
2021/04/08 13:31:26;;;;;;;1.10;0.60;;;;;;;;;;5087645;28;20800;-69
2021/04/08 13:33:52;;;;;;;1.53;1.40;;;;;;;;;;5090282;28;20459;-70
2021/04/08 13:36:18;;;;;;;2.00;0.63;;;;;;;;;;5091270;28;20734;-70
2021/04/08 13:38:44;;;;;;;0.90;0.63;;;;;;;;;;5091700;28;20893;-71
2021/04/08 13:41:10;;;;;;;0.80;0.40;;;;;;;;;;5090523;28;20429;-70
2021/04/08 13:43:36;;;;;;;0.80;0.73;;;;;;;;;;5092983;28;20439;-69
2021/04/08 13:46:02;;;;;;;0.90;0.67;;;;;;;;;;5095226;28;20502;-70
2021/04/08 13:48:28;;;;;;;2.80;0.60;;;;;;;;;;5101001;28;20422;-70
2021/04/08 13:50:54;;;;;;;1.07;0.93;;;;;;;;;;5095668;28;21014;-71
2021/04/08 13:53:20;;;;;;;0.70;0.43;;;;;;;;;;5092719;28;20411;-70
2021/04/08 13:55:46;;;;;;;1.07;0.77;;;;;;;;;;5093571;28;20444;-70
2021/04/08 13:58:12;;;;;;;0.83;0.73;;;;;;;;;;5074771;28;20459;-70
2021/04/08 14:00:40;;;;;;;1.20;0.50;;;;;;;;;;5094978;28;20417;-68
2021/04/08 14:03:06;;;;;;;0.70;0.50;;;;;;;;;;5073760;28;20411;-68
2021/04/08 14:05:32;;;;;;;0.70;0.50;;;;;;;;;;5093046;28;20501;-68
2021/04/08 14:07:58;;;;;;;6.90;1.10;;;;;;;;;;5089926;28;20953;-68
2021/04/08 14:10:24;;;;;;;0.80;0.57;;;;;;;;;;5090701;28;20381;-69
2021/04/08 14:12:51;;;;;;;1.00;0.80;;;;;;;;;;5091378;28;20455;-69
2021/04/08 14:15:17;;;;;;;1.43;0.67;;;;;;;;;;5090006;28;20473;-69
2021/04/08 14:17:43;;;;;;;1.10;1.00;;;;;;;;;;5087892;28;20498;-69
2021/04/08 14:20:09;;;;;;;3.53;0.97;;;;;;;;;;5078182;28;20428;-68
2021/04/08 14:22:36;;;;;;;0.83;0.80;;;;;;;;;;5090865;28;20402;-70
2021/04/08 14:25:02;;;;;;;0.80;0.70;;;;;;;;;;5096359;28;20805;-70
2021/04/08 14:27:28;;;;;;;0.70;0.40;;;;;;;;;;5093703;28;20427;-70
2021/04/08 14:29:54;;;;;;;0.80;0.60;;;;;;;;;;5096939;28;20976;-71
2021/04/08 14:32:20;;;;;;;0.80;0.50;;;;;;;;;;5090952;28;20492;-69
2021/04/08 14:34:46;;;;;;;1.20;0.77;;;;;;;;;;5094211;28;20410;-70
2021/04/08 14:37:12;;;;;;;0.97;0.67;;;;;;;;;;5095248;28;20803;-69
2021/04/08 14:39:38;;;;;;;0.80;0.50;;;;;;;;;;5100446;28;20403;-70
2021/04/08 14:42:04;;;;;;;0.90;0.80;;;;;;;;;;5099249;28;20404;-70
2021/04/08 14:44:30;;;;;;;0.70;0.50;;;;;;;;;;5104241;28;20418;-70
2021/04/08 14:46:56;;;;;;;4.53;1.20;;;;;;;;;;5106900;28;20434;-70